• Join FlightAware (Why Join?)
  • Login
  • US Flag 
02:00PM EDT


 

Airport Tracker/Info


-or-


 

Live Flight TrackerFlight Track Log ✈ RPA3869 ✈ 13-May-2013 ✈ KMYR - KEWR

Flight Track Log - Related Links

Times and Time Zones

All times are in EDT time to prevent confusion due to time zone crossing. See the RPA3869 flight status page for this flight to view local times or setup timezone preferences in your user account.

Time Position Orientation Groundspeed Altitude Reporting Facility
EDT Latitude Longitude Course Direction KTS MPH feet Rate Location/Type
11:49AM 33.7553 -78.9258 56° Northeast 172 198 3,700  Level Jacksonville Center
11:50AM 33.8022 -78.8889 33° Northeast 172 198 5,700 2,160 Climbing Jacksonville Center
11:51AM 33.9365 -78.5256 64° Northeast  Level FlightAware Approximate
11:51AM 33.8486 -78.8467 37° Northeast 191 220 8,100  Level Jacksonville Center
11:52AM 33.9935 -78.4165 46° Northeast  Level FlightAware Approximate
11:52AM 33.8864 -78.7850 54° Northeast 211 243 10,100  Level Jacksonville Center
11:53AM 34.0597 -78.3141 59° Northeast  Level FlightAware Approximate
11:54AM 34.1200 -78.2308 56° Northeast  Level FlightAware Approximate
11:55AM 33.9731 -78.6117 59° Northeast 259 298 13,400  Level Washington Center
11:56AM 34.0192 -78.5258 57° Northeast 289 333 14,800 1,320 Climbing Washington Center
11:57AM 34.0672 -78.4322 58° Northeast 302 348 16,200 1,260 Climbing Washington Center
11:58AM 34.1153 -78.3411 57° Northeast 314 361 17,400 1,200 Climbing Washington Center
11:59AM 34.1633 -78.2447 59° Northeast 319 367 18,600 1,080 Climbing Washington Center
12:00PM 34.2133 -78.1483 58° Northeast 324 373 19,600 900 Climbing Washington Center
12:01PM 34.2678 -78.0372 59° Northeast 335 386 20,500 780 Climbing Washington Center
12:02PM 34.3242 -77.9331 57° Northeast 349 402 21,300 720 Climbing Washington Center
12:03PM 34.3967 -77.8572 41° Northeast 339 390 22,000 780 Climbing Washington Center
12:04PM 34.4931 -77.8372 10° North 328 377 22,900 720 Climbing Washington Center
12:04PM 34.5872 -77.8169 10° North 328 377 23,500 600 Climbing Washington Center
12:06PM 34.6836 -77.7944 11° North 333 383 24,200 540 Climbing Washington Center
12:07PM 34.7778 -77.7717 11° North 343 395 24,700 360 Climbing Washington Center
12:08PM 34.8764 -77.7439 13° North 343 395 25,000 120 Climbing Washington Center
12:09PM 34.9814 -77.7189 11° North 362 417 25,000  Level Washington Center
12:10PM 35.0881 -77.6936 11° North 376 433 25,000  Level Washington Center
12:11PM 35.1992 -77.6636 12° North 394 453 25,000  Level Washington Center
12:12PM 35.3103 -77.6358 12° North 394 453 25,000  Level Washington Center
12:13PM 35.4233 -77.6083 11° North 399 459 25,000  Level Washington Center
12:14PM 35.5281 -77.5828 11° North 411 473 25,000  Level Washington Center
12:15PM 35.6414 -77.5525 12° North 411 473 25,000  Level Washington Center
12:16PM 35.7522 -77.5269 11° North 411 473 25,000  Level Washington Center
12:17PM 35.8656 -77.4989 11° North 411 473 25,000  Level Washington Center
12:18PM 35.9808 -77.4683 12° North 411 473 25,000  Level Washington Center
12:19PM 36.0939 -77.4428 10° North 411 473 25,000  Level Washington Center
12:20PM 36.2133 -77.4094 13° North 411 473 25,000  Level Washington Center
12:21PM 36.3242 -77.3811 12° North 406 467 25,000  Level Washington Center
12:22PM 36.4372 -77.3528 11° North 411 473 25,000 -240 Level Washington Center
12:23PM 36.5503 -77.3242 11° North 411 473 24,600 -540 Descending Washington Center
12:24PM 36.6594 -77.2931 13° North 411 473 24,000 -840 Descending Washington Center
12:25PM 36.7597 -77.2667 12° North 406 467 23,000 -1,020 Descending Washington Center
12:26PM 36.8667 -77.2406 11° North 401 461 22,000 -960 Descending Washington Center
12:27PM 36.9756 -77.2089 13° North 395 455 21,100 -540 Descending Washington Center
12:28PM 37.0781 -77.1825 12° North 390 449 21,000 -60 Descending Washington Center
12:29PM 37.1847 -77.1561 11° North 390 449 21,000  Level Washington Center
12:30PM 37.2958 -77.1269 12° North 396 456 21,000  Level Washington Center
12:31PM 37.4092 -77.0586 26° Northeast 395 455 21,000  Level Washington Center
12:32PM 37.5083 -76.9819 32° Northeast 416 479 21,000  Level Washington Center
12:33PM 37.6172 -76.9317 20° North 416 479 21,000  Level Washington Center
12:34PM 37.7261 -76.8861 18° North 416 479 21,000  Level Washington Center
12:35PM 37.8394 -76.8381 19° North 416 479 21,000  Level Washington Center
12:36PM 37.9403 -76.7661 29° Northeast 411 473 21,000  Level Washington Center
12:37PM 38.0431 -76.6939 29° Northeast 411 473 21,000  Level Washington Center
12:38PM 38.1481 -76.6214 28° Northeast 416 479 21,000 -840 Level Washington Center
12:39PM 38.2486 -76.5489 30° Northeast 416 479 19,400 -1,680 Descending Washington Center
12:40PM 38.3428 -76.4892 26° Northeast 394 453 17,700 -1,920 Descending Washington Center
12:41PM 38.4350 -76.4292 27° Northeast 373 429 15,700 -2,040 Descending Washington Center
12:42PM 38.5231 -76.3639 30° Northeast 368 423 13,700 -1,380 Descending Washington Center
12:43PM 38.6131 -76.3036 28° Northeast 368 423 13,000 -360 Descending Washington Center
12:44PM 38.7072 -76.2753 13° North 356 410 13,000 -180 Level Washington Center
12:45PM 38.8031 -76.2442 14° North 350 403 12,700 -660 Descending Washington Center
12:46PM 38.8950 -76.2183 12° North 340 391 11,700 -840 Descending Washington Center
12:47PM 38.9847 -76.1872 15° North 334 384 11,100 -420 Descending Washington Center
12:48PM 39.0683 -76.1583 15° North 339 390 10,900 -120 Descending Washington Center
12:49PM 39.1561 -76.1350 12° North 334 384 10,900  Level Washington Center
12:50PM 39.2458 -76.1061 14° North 329 379 10,900  Level Washington Center
12:51PM 39.3189 -76.0394 35° Northeast 324 373 10,900  Level Washington Center
12:53PM 39.5167 -75.8000 43° Northeast 343 395 10,900  Level Philadelphia TRACON
12:54PM 39.5833 -75.7333 38° Northeast 346 398 11,000  Climbing Philadelphia TRACON
12:55PM 39.6500 -75.6333 49° Northeast 346 398 10,900  Descending Philadelphia TRACON
12:56PM 39.7000 -75.5333 57° Northeast 358 412 11,000  Climbing Philadelphia TRACON
12:57PM 39.7333 -75.4167 70° East 356 410 11,000 -180 Level Philadelphia TRACON
12:58PM 39.7667 -75.3000 70° East 350 403 10,700 -720 Descending Philadelphia TRACON
12:59PM 39.8000 -75.1833 70° East 280 322 9,600 -1,020 Descending Philadelphia TRACON
01:00PM 39.8167 -75.1000 75° East 282 325 8,700 -900 Descending Philadelphia TRACON
01:01PM 39.8500 -75.0000 67° East 286 329 8,000 -420 Descending Philadelphia TRACON
01:02PM 39.9000 -74.9333 46° Northeast 277 319 8,000 -240 Level Philadelphia TRACON
01:03PM 39.9500 -74.8500 52° Northeast 275 316 7,600 -480 Descending Philadelphia TRACON
01:04PM 40.0000 -74.7833 46° Northeast 275 316 7,000 -300 Descending New York TRACON
01:05PM 40.0667 -74.7000 44° Northeast 282 325 7,000  Level New York TRACON
01:06PM 40.1167 -74.6333 46° Northeast 268 308 7,000  Level New York TRACON
01:07PM 40.2000 -74.6333 360° North 277 319 7,000 -420 Level New York TRACON
01:08PM 40.2667 -74.6333 360° North 265 305 6,200 -540 Descending New York TRACON
01:09PM 40.3333 -74.6333 360° North 262 302 6,000 -120 Descending New York TRACON
01:10PM 40.4167 -74.6333 360° North 260 299 6,000  Level New York TRACON
01:11PM 40.5000 -74.6167 North 262 302 6,000  Level New York TRACON
01:12PM 40.5500 -74.6000 14° North 265 305 6,000  Level New York TRACON
01:13PM 40.6333 -74.5833 North 267 307 6,000  Level New York TRACON
01:14PM 40.7167 -74.5667 North 263 303 6,000  Level New York TRACON
01:15PM 40.7833 -74.5500 11° North 262 302 6,000  Level New York TRACON
01:16PM 40.8667 -74.5333 North 259 298 6,000 -360 Level New York TRACON
01:17PM 40.9333 -74.5167 11° North 264 304 5,300 -540 Descending New York TRACON
01:18PM 40.9833 -74.4667 37° Northeast 269 310 5,000 -180 Descending New York TRACON
01:19PM 41.0000 -74.3833 75° East 252 290 5,000  Level New York TRACON
01:20PM 41.0000 -74.3000 90° East 241 277 5,000 -360 Level New York TRACON
01:21PM 40.9667 -74.2333 123° Southeast 232 267 4,300 -480 Descending New York TRACON
01:22PM 40.9167 -74.1667 135° Southeast 217 250 4,000 -240 Descending New York TRACON
01:23PM 40.8833 -74.1167 131° Southeast 191 220 3,900 -600 Descending New York TRACON
01:24PM 40.8500 -74.1000 159° South 184 212 2,900 -1,140 Descending New York TRACON